Time;durP1;ratioP1;P1;durP2;ratioP2;P2;SDS_P1;SDS_P2;PMS_P1;PMS_P2;Temp;Humidity;BMP_temperature;BMP_pressure;BME280_temperature;BME280_humidity;BME280_pressure;Samples;Min_cycle;Max_cycle;Signal;HPM_P1;HPM_P2
2023/03/13 00:01:39;;;;;;;;;3.00;3.00;;;;;14.91;100.00;99945.00;4957346;28;44885;-86
2023/03/13 00:04:07;;;;;;;;;2.33;2.33;;;;;14.93;100.00;99975.31;4957636;28;47544;-86
2023/03/13 00:06:36;;;;;;;;;2.00;2.00;;;;;15.15;100.00;99994.59;4940367;28;45550;-86
2023/03/13 00:09:04;;;;;;;;;5.33;5.33;;;;;15.16;100.00;99988.31;4956645;28;44842;-86
2023/03/13 00:11:31;;;;;;;;;3.00;2.67;;;;;15.14;100.00;99978.53;4975420;28;45410;-86
2023/03/13 00:14:03;;;;;;;;;3.00;2.00;;;;;15.18;100.00;99982.94;4974145;28;46791;-86
2023/03/13 00:16:30;;;;;;;;;3.00;3.00;;;;;15.20;100.00;99987.34;4941236;28;45850;-85
2023/03/13 00:19:00;;;;;;;;;2.00;2.00;;;;;15.19;100.00;99971.34;4957419;28;45452;-86
2023/03/13 00:21:28;;;;;;;;;3.25;2.25;;;;;15.27;100.00;99990.84;4957977;28;45378;-86
2023/03/13 00:23:54;;;;;;;;;2.00;2.00;;;;;15.18;100.00;99983.81;4956375;28;46472;-86
2023/03/13 00:26:23;;;;;;;;;6.00;5.00;;;;;15.29;100.00;99978.28;4958034;28;45223;-86
2023/03/13 00:28:49;;;;;;;;;3.00;3.00;;;;;15.18;100.00;99953.47;4974353;28;44739;-86
2023/03/13 00:31:24;;;;;;;;;2.25;2.25;;;;;15.35;100.00;99980.88;4974685;28;45481;-86
2023/03/13 00:33:52;;;;;;;;;2.75;2.75;;;;;15.29;100.00;99964.91;4974056;28;45475;-86
2023/03/13 00:36:25;;;;;;;;;1.25;1.25;;;;;15.24;100.00;99958.72;4973680;28;45442;-84
2023/03/13 00:38:52;;;;;;;;;3.25;3.25;;;;;15.16;100.00;99933.88;4956749;28;45796;-85
2023/03/13 00:41:29;;;;;;;;;1.75;1.75;;;;;15.38;100.00;99956.69;4973647;28;45301;-85
2023/03/13 00:43:55;;;;;;;;;4.00;4.00;;;;;15.39;100.00;99963.81;4973300;28;47141;-85
2023/03/13 00:46:23;;;;;;;;;3.00;3.00;;;;;15.45;100.00;99978.00;4957603;28;45350;-85
2023/03/13 00:48:49;;;;;;;;;4.50;2.00;;;;;15.27;100.00;99939.03;4958301;28;45412;-86
2023/03/13 00:51:18;;;;;;;;;3.00;3.00;;;;;15.43;100.00;99963.75;4974054;28;45431;-86
2023/03/13 00:53:44;;;;;;;;;2.00;2.00;;;;;15.30;100.00;99950.56;4974618;28;45345;-86
2023/03/13 00:56:12;;;;;;;;;2.67;2.67;;;;;15.34;100.00;99946.06;4957619;28;45462;-85
2023/03/13 00:58:41;;;;;;;;;4.00;3.75;;;;;15.31;100.00;99935.38;4956965;28;45403;-85
2023/03/13 01:01:17;;;;;;;;;2.00;2.00;;;;;15.54;100.00;99973.38;4957945;28;44876;-86
2023/03/13 01:03:49;;;;;;;;;3.50;2.75;;;;;15.45;100.00;99953.88;4956304;28;47187;-86
2023/03/13 01:06:17;;;;;;;;;2.75;2.00;;;;;15.50;100.00;99957.38;4954842;28;45415;-85
2023/03/13 01:08:43;;;;;;;;;2.00;2.00;;;;;15.49;100.00;99952.91;4955496;28;45433;-85
2023/03/13 01:11:13;;;;;;;;;2.00;2.00;;;;;15.51;100.00;99933.25;4971688;28;45358;-85
2023/03/13 01:13:40;;;;;;;;;5.33;5.33;;;;;15.52;100.00;99936.78;4956214;28;46915;-86
2023/03/13 01:16:20;;;;;;;;;4.50;4.00;;;;;15.50;100.00;99931.44;4955194;28;45399;-85
2023/03/13 01:18:48;;;;;;;;;4.00;3.00;;;;;15.48;100.00;99911.84;4973112;28;45501;-86
2023/03/13 01:21:15;;;;;;;;;3.50;3.50;;;;;15.32;100.00;99879.09;4955234;28;44904;-85
2023/03/13 01:23:41;;;;;;;;;6.00;5.00;;;;;15.53;100.00;99917.09;4955989;28;47171;-85
2023/03/13 01:26:08;;;;;;;;;3.00;1.75;;;;;15.48;100.00;99897.56;4956166;28;45499;-85
2023/03/13 01:28:38;;;;;;;;;5.33;5.33;;;;;15.58;100.00;99908.06;4956048;28;45293;-86
2023/03/13 01:31:24;;;;;;;;;3.50;3.25;;;;;15.67;100.00;99908.78;4939232;28;45685;-85
2023/03/13 01:33:53;;;;;;;;;4.00;4.00;;;;;15.58;100.00;99904.50;4955711;28;47818;-85
2023/03/13 01:36:19;;;;;;;;;5.25;4.25;;;;;15.55;100.00;99907.25;4973004;28;45349;-86
2023/03/13 01:38:49;;;;;;;;;6.33;4.00;;;;;15.60;100.00;99913.41;4972715;28;45373;-86
2023/03/13 01:41:16;;;;;;;;;6.00;4.00;;;;;15.53;100.00;99911.75;4970807;28;45536;-86
2023/03/13 01:43:44;;;;;;;;;6.00;4.50;;;;;15.48;100.00;99901.13;4953413;28;46603;-86
2023/03/13 01:46:16;;;;;;;;;4.75;4.75;;;;;15.51;100.00;99908.22;4969610;28;45478;-86
2023/03/13 01:49:00;;;;;;;;;6.67;5.33;;;;;15.49;100.00;99888.59;4954620;28;45485;-86
2023/03/13 01:51:49;;;;;;;;;4.00;4.00;;;;;15.49;100.00;99878.78;4972987;28;45684;-85
2023/03/13 01:54:58;;;;;;;;;7.00;5.00;;;;;15.51;100.00;99871.59;4972264;28;46984;-85
2023/03/13 01:57:36;;;;;;;;;4.33;4.33;;;;;15.47;100.00;99869.00;4974507;28;45774;-84
2023/03/13 02:00:12;;;;;;;;;4.00;3.33;;;;;15.44;100.00;99885.16;4991543;28;45392;-84
2023/03/13 02:02:42;;;;;;;;;4.67;4.33;;;;;15.19;100.00;99842.78;4991385;28;45422;-85
2023/03/13 02:05:08;;;;;;;;;7.67;6.00;;;;;15.36;100.00;99879.94;4991596;28;46172;-84
2023/03/13 02:07:39;;;;;;;;;3.00;3.00;;;;;15.31;100.00;99846.97;4974623;28;45383;-84
2023/03/13 02:10:06;;;;;;;;;5.00;5.00;;;;;15.36;100.00;99869.22;4989588;28;45246;-85
2023/03/13 02:12:35;;;;;;;;;6.67;5.00;;;;;15.26;100.00;99849.75;4990419;28;45628;-85
2023/03/13 02:15:05;;;;;;;;;6.00;4.33;;;;;15.23;100.00;99825.72;4990077;28;47886;-86
2023/03/13 02:17:33;;;;;;;;;5.67;5.67;;;;;15.30;100.00;99840.75;4974624;28;45405;-85
2023/03/13 02:19:59;;;;;;;;;6.00;5.00;;;;;15.24;100.00;99824.78;4975364;28;45405;-85
2023/03/13 02:22:49;;;;;;;;;5.00;3.25;;;;;15.47;100.00;99852.91;4991966;28;45480;-85
2023/03/13 02:25:35;;;;;;;;;6.00;4.00;;;;;15.44;100.00;99842.28;4990238;28;46831;-85
2023/03/13 02:28:22;;;;;;;;;7.67;5.00;;;;;15.35;100.00;99816.53;4992928;28;45415;-85
2023/03/13 02:30:50;;;;;;;;;6.33;6.33;;;;;15.38;100.00;99822.72;4974647;28;45250;-85
2023/03/13 02:33:18;;;;;;;;;5.00;5.00;;;;;15.09;100.00;99788.50;4990414;28;44777;-85
2023/03/13 02:35:45;;;;;;;;;3.67;3.67;;;;;15.16;100.00;99802.63;4990590;28;45224;-85
2023/03/13 02:38:18;;;;;;;;;5.00;5.00;;;;;15.20;100.00;99829.31;4969712;28;44873;-85
2023/03/13 02:40:46;;;;;;;;;6.33;4.33;;;;;15.16;100.00;99822.25;4970784;28;45369;-85
2023/03/13 02:43:34;;;;;;;;;3.00;3.00;;;;;15.31;100.00;99826.44;4971535;28;45377;-86
2023/03/13 02:46:00;;;;;;;;;7.00;3.67;;;;;15.29;100.00;99838.09;4954769;28;47696;-86
2023/03/13 02:48:46;;;;;;;;;6.33;4.67;;;;;15.36;100.00;99824.53;4955620;28;45837;-85
2023/03/13 02:51:24;;;;;;;;;3.67;3.67;;;;;15.42;100.00;99825.34;4955590;28;45360;-85
2023/03/13 02:53:53;;;;;;;;;4.00;4.00;;;;;15.39;100.00;99813.78;4956059;28;45524;-85
2023/03/13 02:56:23;;;;;;;;;3.00;3.00;;;;;15.41;100.00;99805.69;4938838;28;47169;-85
2023/03/13 02:58:48;;;;;;;;;3.33;3.00;;;;;15.35;100.00;99804.03;4955655;28;45451;-85
2023/03/13 03:01:14;;;;;;;;;2.67;2.67;;;;;15.34;100.00;99799.59;4958487;28;45155;-86
2023/03/13 03:03:39;;;;;;;;;4.67;4.00;;;;;15.37;100.00;99796.84;4976853;28;45398;-86
2023/03/13 03:06:06;;;;;;;;;10.00;5.00;;;;;15.26;100.00;99773.88;4964329;28;47259;-85
2023/03/13 03:08:33;;;;;;;;;6.33;6.33;;;;;15.24;100.00;99770.34;4958594;28;44809;-85
2023/03/13 03:10:58;;;;;;;;;5.67;4.67;;;;;15.35;100.00;99796.00;4974065;28;45474;-85
2023/03/13 03:13:25;;;;;;;;;4.33;4.33;;;;;15.29;100.00;99765.75;4976272;28;45451;-84
2023/03/13 03:15:51;;;;;;;;;5.00;5.00;;;;;15.33;100.00;99779.09;4959168;28;47048;-84
2023/03/13 03:18:16;;;;;;;;;4.75;4.75;;;;;15.22;100.00;99754.31;4972120;28;45468;-86
2023/03/13 03:20:42;;;;;;;;;4.00;4.00;;;;;15.35;100.00;99771.91;4975937;28;44799;-86
2023/03/13 03:23:08;;;;;;;;;5.00;5.00;;;;;15.43;100.00;99786.91;4959656;28;45382;-85
2023/03/13 03:25:33;;;;;;;;;6.00;5.00;;;;;15.45;100.00;99782.41;4975206;28;45248;-85
2023/03/13 03:27:59;;;;;;;;;5.00;4.00;;;;;15.43;100.00;99777.09;4956926;28;45769;-84
2023/03/13 03:30:25;;;;;;;;;3.75;3.75;;;;;15.18;100.00;99739.22;4972538;28;44728;-84
2023/03/13 03:32:50;;;;;;;;;5.67;5.67;;;;;15.45;100.00;99769.00;4974684;28;45606;-85
2023/03/13 03:35:16;;;;;;;;;4.00;4.00;;;;;15.51;100.00;99780.50;4974453;28;45029;-85
2023/03/13 03:37:41;;;;;;;;;3.50;3.50;;;;;15.46;100.00;99776.13;4958037;28;45707;-86
2023/03/13 03:40:08;;;;;;;;;6.00;6.00;;;;;15.41;100.00;99768.19;4958770;28;44718;-85
2023/03/13 03:42:34;;;;;;;;;5.33;5.33;;;;;15.49;100.00;99785.00;4959147;28;45581;-85
2023/03/13 03:45:00;;;;;;;;;5.00;3.33;;;;;15.56;100.00;99788.41;4958532;28;46903;-86
2023/03/13 03:47:25;;;;;;;;;3.67;3.00;;;;;15.55;100.00;99775.91;4957395;28;45480;-85
2023/03/13 03:49:51;;;;;;;;;5.67;4.67;;;;;15.50;100.00;99773.34;4958348;28;45473;-85
2023/03/13 03:52:17;;;;;;;;;4.33;3.67;;;;;15.47;100.00;99777.88;4973860;28;45759;-86
2023/03/13 03:54:48;;;;;;;;;5.00;4.33;;;;;15.56;100.00;99772.34;4973829;28;47462;-85
2023/03/13 03:57:14;;;;;;;;;5.00;5.00;;;;;15.44;100.00;99773.47;4956782;28;45457;-85
2023/03/13 03:59:39;;;;;;;;;2.25;2.25;;;;;15.49;100.00;99770.69;4958097;28;45656;-86
2023/03/13 04:02:06;;;;;;;;;8.67;4.33;;;;;15.50;100.00;99765.31;4974260;28;45501;-85
2023/03/13 04:04:32;;;;;;;;;6.33;4.33;;;;;15.50;100.00;99767.13;4957498;28;46800;-86
2023/03/13 04:10:19;;;;;;;;;6.00;5.00;;;;;15.50;100.00;99783.19;4974783;28;44727;-85
2023/03/13 04:12:45;;;;;;;;;4.00;4.00;;;;;15.47;100.00;99772.53;4942343;28;45471;-86
2023/03/13 04:15:11;;;;;;;;;8.00;7.00;;;;;15.50;100.00;99775.16;4958464;28;47851;-86
2023/03/13 04:17:44;;;;;;;;;8.00;6.67;;;;;15.49;100.00;99762.66;4975117;28;45450;-85
2023/03/13 04:20:12;;;;;;;;;6.00;5.00;;;;;15.47;100.00;99764.50;4974796;28;45414;-85
2023/03/13 04:22:38;;;;;;;;;6.00;5.00;;;;;15.43;100.00;99757.44;4957321;28;45499;-85
2023/03/13 04:25:05;;;;;;;;;3.50;3.50;;;;;15.43;100.00;99757.44;4973951;28;46582;-85
2023/03/13 04:27:32;;;;;;;;;5.00;5.00;;;;;15.37;100.00;99759.34;4957142;28;45351;-85
2023/03/13 04:29:57;;;;;;;;;5.00;5.00;;;;;15.30;100.00;99755.03;4971652;28;45439;-85
2023/03/13 04:32:23;;;;;;;;;8.33;5.00;;;;;15.36;100.00;99762.91;4979726;28;44728;-86
2023/03/13 04:34:48;;;;;;;;;2.00;2.00;;;;;15.30;100.00;99757.69;4974858;28;46943;-85
2023/03/13 04:37:15;;;;;;;;;2.67;2.67;;;;;15.34;100.00;99753.16;4993339;28;45396;-85
2023/03/13 04:39:41;;;;;;;;;5.00;5.00;;;;;15.36;100.00;99759.38;4977455;28;45461;-85
2023/03/13 04:42:06;;;;;;;;;1.67;1.67;;;;;15.28;100.00;99753.28;4976763;28;45559;-84
2023/03/13 04:44:32;;;;;;;;;6.67;4.33;;;;;15.34;100.00;99761.19;4976204;28;48412;-85
2023/03/13 04:46:57;;;;;;;;;4.67;4.67;;;;;15.24;100.00;99744.44;4977160;28;45507;-85
2023/03/13 04:49:23;;;;;;;;;5.67;5.67;;;;;15.27;100.00;99749.75;4993334;28;45337;-85
2023/03/13 04:51:48;;;;;;;;;5.67;5.67;;;;;15.37;100.00;99783.47;4975863;28;45353;-85
2023/03/13 04:54:14;;;;;;;;;7.00;6.00;;;;;15.29;100.00;99760.41;4975625;28;46662;-85
2023/03/13 04:56:39;;;;;;;;;7.00;6.33;;;;;15.30;100.00;99768.41;4976138;28;45715;-84
2023/03/13 04:59:05;;;;;;;;;5.00;5.00;;;;;15.41;100.00;99776.22;4975811;28;45396;-85
2023/03/13 05:01:33;;;;;;;;;4.00;4.00;;;;;15.42;100.00;99771.75;4991503;28;45293;-85
2023/03/13 05:03:59;;;;;;;;;5.67;5.00;;;;;15.33;100.00;99776.41;4993804;28;45238;-86
2023/03/13 05:06:24;;;;;;;;;7.75;7.75;;;;;15.31;100.00;99754.13;4993784;28;45500;-85
2023/03/13 05:08:50;;;;;;;;;6.00;6.00;;;;;15.33;100.00;99765.69;4990638;28;44727;-84
2023/03/13 05:11:15;;;;;;;;;5.67;5.33;;;;;15.28;100.00;99756.84;4973476;28;44815;-84
2023/03/13 05:13:41;;;;;;;;;6.33;6.33;;;;;15.27;100.00;99752.41;4974061;28;46613;-86
2023/03/13 05:16:09;;;;;;;;;6.33;6.33;;;;;15.25;100.00;99751.56;4976458;28;45866;-84
2023/03/13 05:18:34;;;;;;;;;6.33;6.33;;;;;15.19;100.00;99730.28;4992574;28;45456;-85
2023/03/13 05:21:02;;;;;;;;;5.33;5.00;;;;;15.20;100.00;99740.06;4975257;28;45227;-85
2023/03/13 05:23:27;;;;;;;;;5.67;5.67;;;;;15.16;100.00;99735.69;4991711;28;46458;-85
2023/03/13 05:25:53;;;;;;;;;8.33;8.33;;;;;15.12;100.00;99736.66;4975820;28;45501;-85
2023/03/13 05:28:18;;;;;;;;;6.00;6.00;;;;;15.12;100.00;99740.22;4975154;28;45286;-86
2023/03/13 05:34:06;;;;;;;;;8.33;8.00;;;;;15.12;100.00;99750.03;4993619;28;45750;-86
2023/03/13 05:36:32;;;;;;;;;5.33;5.33;;;;;15.06;100.00;99747.50;4975017;28;45814;-85
2023/03/13 05:38:57;;;;;;;;;6.00;6.00;;;;;15.05;100.00;99749.31;4974419;28;45207;-85
2023/03/13 05:41:22;;;;;;;;;5.67;5.67;;;;;15.10;100.00;99758.09;4993170;28;45312;-85
2023/03/13 05:43:48;;;;;;;;;4.33;3.00;;;;;15.11;100.00;99745.63;4992093;28;45932;-85
2023/03/13 05:46:14;;;;;;;;;5.67;5.67;;;;;15.08;100.00;99741.19;4975069;28;45575;-85
2023/03/13 05:48:40;;;;;;;;;7.33;5.33;;;;;15.06;100.00;99747.50;4988647;28;45468;-86
2023/03/13 05:51:05;;;;;;;;;6.00;6.00;;;;;15.08;100.00;99754.56;4990498;28;45411;-85
2023/03/13 05:53:30;;;;;;;;;7.33;7.33;;;;;15.06;100.00;99728.75;4973402;28;46706;-86
2023/03/13 05:55:56;;;;;;;;;5.67;4.00;;;;;15.06;100.00;99736.78;4990047;28;45280;-85
2023/03/13 05:58:23;;;;;;;;;7.00;7.00;;;;;15.00;100.00;99727.06;4991473;28;45365;-85
2023/03/13 06:09:03;;;;;;;;;6.67;6.67;;;;;14.96;100.00;99695.91;3079719;23;46929;-85
2023/03/13 06:11:29;;;;;;;;;5.67;5.67;;;;;14.93;100.00;99714.75;4958251;28;45494;-86
2023/03/13 06:13:55;;;;;;;;;6.00;6.00;;;;;14.82;100.00;99695.31;4970301;28;45799;-86
2023/03/13 06:16:39;;;;;;;;;7.67;7.00;;;;;15.01;100.00;99718.16;4971434;28;45361;-88
2023/03/13 06:19:08;;;;;;;;;7.00;7.00;;;;;14.93;100.00;99723.66;4972770;28;45317;-86
2023/03/13 06:21:36;;;;;;;;;5.00;5.00;;;;;14.99;100.00;99730.69;4972557;28;44942;-86
2023/03/13 06:24:15;;;;;;;;;6.00;6.00;;;;;14.95;100.00;99704.88;4965215;28;45369;-86
2023/03/13 06:26:42;;;;;;;;;6.00;6.00;;;;;14.96;100.00;99712.00;4937010;28;45459;-86
2023/03/13 06:29:10;;;;;;;;;5.67;5.67;;;;;14.98;100.00;99711.03;4949871;28;44843;-86
2023/03/13 06:31:35;;;;;;;;;5.00;5.00;;;;;14.96;100.00;99704.81;4933677;28;45225;-86
2023/03/13 06:34:01;;;;;;;;;10.00;8.00;;;;;14.95;100.00;99705.75;4916058;28;47450;-86
2023/03/13 06:36:27;;;;;;;;;5.67;5.00;;;;;14.97;100.00;99693.22;4915799;28;45402;-87
2023/03/13 06:38:52;;;;;;;;;6.33;6.33;;;;;15.03;100.00;99696.66;4916274;28;45405;-86
2023/03/13 06:41:18;;;;;;;;;7.00;7.00;;;;;15.00;100.00;99693.13;4931791;28;45379;-85
2023/03/13 06:43:43;;;;;;;;;7.00;7.00;;;;;15.03;100.00;99694.00;4954785;28;45533;-85
2023/03/13 06:46:19;;;;;;;;;7.67;6.00;;;;;15.09;100.00;99692.09;4938388;28;45429;-85
2023/03/13 06:48:47;;;;;;;;;4.67;4.67;;;;;15.04;100.00;99677.03;4955099;28;45568;-85
2023/03/13 06:51:15;;;;;;;;;6.00;6.00;;;;;15.10;100.00;99671.53;4935603;28;45696;-86
2023/03/13 06:53:41;;;;;;;;;7.00;7.00;;;;;15.09;100.00;99683.16;4919399;28;47211;-86
2023/03/13 06:56:08;;;;;;;;;4.67;4.67;;;;;15.10;100.00;99683.13;4935708;28;45359;-85
2023/03/13 06:58:34;;;;;;;;;5.00;5.00;;;;;15.13;100.00;99682.19;4955925;28;44997;-85
2023/03/13 07:01:15;;;;;;;;;8.33;7.33;;;;;15.18;100.00;99674.94;4954709;28;45606;-86
2023/03/13 07:03:44;;;;;;;;;7.00;6.00;;;;;14.99;100.00;99661.06;4921968;28;47351;-86
2023/03/13 07:06:19;;;;;;;;;7.33;6.00;;;;;15.10;100.00;99660.81;4937285;28;45523;-85
2023/03/13 07:08:47;;;;;;;;;6.00;6.00;;;;;15.19;100.00;99690.09;4956308;28;44832;-85
2023/03/13 07:11:17;;;;;;;;;7.00;6.33;;;;;15.23;100.00;99673.03;4971251;28;45376;-85
2023/03/13 07:13:43;;;;;;;;;6.00;5.00;;;;;15.04;100.00;99620.78;4938095;28;47065;-86
2023/03/13 07:16:11;;;;;;;;;6.00;6.00;;;;;15.05;100.00;99635.94;4936359;28;45399;-86
2023/03/13 07:18:44;;;;;;;;;5.67;5.67;;;;;15.32;100.00;99662.09;4938069;28;44914;-86
2023/03/13 07:21:25;;;;;;;;;7.00;5.67;;;;;15.31;100.00;99632.66;4937997;28;45460;-86
2023/03/13 07:34:33;;;;;;;;;4.33;4.33;;;;;15.69;100.00;99661.22;4978126;28;45202;-86
2023/03/13 07:36:58;;;;;;;;;5.00;5.00;;;;;15.60;100.00;99656.13;4910217;28;45431;-86
2023/03/13 07:39:50;;;;;;;;;9.00;7.67;;;;;15.67;100.00;99649.66;4908470;28;45331;-86
2023/03/13 07:42:27;;;;;;;;;5.00;5.00;;;;;15.72;100.00;99657.63;4914975;28;44795;-87
2023/03/13 07:45:40;;;;;;;;;;;;;;;;;;;;;
2023/03/13 07:48:33;;;;;;;;;8.67;6.00;;;;;15.53;100.00;99650.03;4889524;29;75161;-85
2023/03/13 07:51:01;;;;;;;;;3.00;3.00;;;;;15.40;100.00;99636.03;4842840;29;45426;-86
2023/03/13 07:53:31;;;;;;;;;6.00;5.67;;;;;15.45;100.00;99640.38;4870473;29;44977;-85
2023/03/13 07:56:01;;;;;;;;;4.00;4.00;;;;;15.39;100.00;99615.53;4875342;29;45497;-86
2023/03/13 07:58:31;;;;;;;;;7.00;7.00;;;;;15.39;100.00;99610.16;4882467;29;45501;-85
2023/03/13 08:00:57;;;;;;;;;7.00;6.00;;;;;15.60;100.00;99640.03;4881819;29;46734;-85
2023/03/13 08:03:28;;;;;;;;;7.00;7.00;;;;;15.71;100.00;99643.31;4898550;29;45390;-85
2023/03/13 08:06:03;;;;;;;;;6.00;6.00;;;;;15.68;100.00;99643.41;4896940;29;44913;-86
2023/03/13 08:08:34;;;;;;;;;5.33;5.33;;;;;15.61;100.00;99636.41;4881729;29;48130;-86
2023/03/13 08:11:11;;;;;;;;;6.00;5.67;;;;;15.57;100.00;99624.00;4880366;29;45801;-85
2023/03/13 08:13:40;;;;;;;;;5.67;5.67;;;;;15.56;100.00;99638.34;4897785;29;44874;-86
2023/03/13 08:16:43;;;;;;;;;5.33;5.33;;;;;15.69;100.00;99623.72;4876753;29;45218;-86
2023/03/13 08:19:42;;;;;;;;;8.67;7.00;;;;;15.79;100.00;99627.97;4874168;29;45464;-83
2023/03/13 08:25:54;;;;;;;;;8.33;6.00;;;;;15.76;100.00;99582.47;4819020;29;45350;-87
2023/03/13 08:28:44;;;;;;;;;7.33;6.67;;;;;15.74;100.00;99603.06;4837057;29;45676;-86
2023/03/13 08:32:18;;;;;;;;;4.00;4.00;;;;;15.57;100.00;99578.47;4850042;29;46356;-87
2023/03/13 11:31:21;;;;;;;;;;;;;;;;;;;;;
2023/03/13 11:38:18;;;;;;;;;;;;;;;;;;;;;
2023/03/13 11:41:28;;;;;;;;;5.50;5.50;;;;;19.43;100.00;99393.31;4829370;29;75875;-76
2023/03/13 11:44:26;;;;;;;;;4.25;4.25;;;;;19.41;100.00;99397.91;4830527;29;45510;-74
2023/03/13 11:47:28;;;;;;;;;3.00;3.00;;;;;19.30;100.00;99392.09;4820871;29;45518;-75
2023/03/13 11:49:56;;;;;;;;;3.00;3.00;;;;;19.19;100.00;99397.94;4826247;29;45532;-76
2023/03/13 11:52:27;;;;;;;;;3.00;3.00;;;;;19.12;100.00;99412.63;4827859;29;48024;-76
2023/03/13 11:55:16;;;;;;;;;6.00;4.00;;;;;19.03;100.00;99404.91;4817441;29;45461;-77
2023/03/13 11:57:59;;;;;;;;;4.00;3.00;;;;;18.89;100.00;99386.66;4827936;29;45512;-75
2023/03/13 12:01:16;;;;;;;;;1.00;1.00;;;;;18.82;100.00;99375.22;4830177;29;45477;-74
2023/03/13 12:04:09;;;;;;;;;3.33;2.67;;;;;18.66;100.00;99376.78;4795395;29;46526;-75
2023/03/13 12:07:01;;;;;;;;;7.00;6.33;;;;;18.57;100.00;99378.91;4812236;29;45474;-75
2023/03/13 12:09:56;;;;;;;;;3.75;3.75;;;;;18.66;100.00;99379.47;4823938;29;45081;-76
2023/03/13 12:12:58;;;;;;;;;4.00;4.00;;;;;18.75;100.00;99358.44;4860973;29;44864;-76
2023/03/13 12:15:58;;;;;;;;;3.33;3.33;;;;;18.86;100.00;99349.91;4858514;29;45570;-75
2023/03/13 12:18:34;;;;;;;;;3.67;3.67;;;;;18.95;100.00;99338.78;4874889;29;45517;-74
2023/03/13 12:24:32;;;;;;;;;5.00;4.50;;;;;19.09;100.00;99329.22;4867230;29;45546;-75
2023/03/13 12:27:40;;;;;;;;;4.67;4.33;;;;;19.07;100.00;99336.50;4877990;29;45557;-76
2023/03/13 12:30:28;;;;;;;;;3.00;3.00;;;;;19.07;100.00;99320.34;4808301;29;45316;-75
2023/03/13 12:33:17;;;;;;;;;3.00;3.00;;;;;19.07;100.00;99296.09;4803739;29;45568;-75
2023/03/13 12:36:05;;;;;;;;;10.67;9.67;;;;;19.06;100.00;99289.78;4793129;29;45502;-74
2023/03/13 12:38:45;;;;;;;;;4.00;3.00;;;;;19.05;100.00;99295.28;4773678;29;46261;-75
2023/03/13 12:41:28;;;;;;;;;5.67;5.33;;;;;18.96;100.00;99297.41;4779537;29;45785;-75
2023/03/13 12:43:54;;;;;;;;;6.33;5.00;;;;;18.98;100.00;99282.03;4781455;29;45357;-74
2023/03/13 12:46:35;;;;;;;;;5.33;5.00;;;;;19.10;100.00;99266.28;4793394;29;45455;-76
2023/03/13 12:49:23;;;;;;;;;7.00;4.67;;;;;19.29;100.00;99250.16;4783815;29;46121;-74
2023/03/13 12:52:33;;;;;;;;;2.67;2.00;;;;;19.34;100.00;99259.78;4799417;29;45462;-75
2023/03/13 12:55:07;;;;;;;;;3.33;3.33;;;;;19.27;100.00;99258.34;4786283;29;45707;-74
2023/03/13 12:58:14;;;;;;;;;6.33;3.67;;;;;19.43;100.00;99236.03;4781039;29;45524;-74
2023/03/13 13:00:59;;;;;;;;;5.67;5.00;;;;;19.36;100.00;99248.94;4787000;29;46771;-74
2023/03/13 13:03:37;;;;;;;;;10.00;10.00;;;;;19.26;100.00;99251.16;4833584;29;45532;-74
2023/03/13 13:06:29;;;;;;;;;9.67;8.00;;;;;19.46;100.00;99263.75;4824549;29;45573;-75
2023/03/13 13:09:18;;;;;;;;;5.00;4.00;;;;;19.55;100.00;99235.47;4828942;29;45342;-76
2023/03/13 13:15:34;;;;;;;;;4.00;3.33;;;;;19.60;100.00;99206.47;4823385;29;45664;-75
2023/03/13 13:18:24;;;;;;;;;3.33;3.33;;;;;19.84;100.00;99192.78;4829411;29;45402;-75
2023/03/13 13:21:19;;;;;;;;;6.00;5.00;;;;;20.00;100.00;99177.59;4823897;29;45563;-74
2023/03/13 13:23:52;;;;;;;;;5.75;3.00;;;;;20.08;100.00;99167.28;4814549;29;46705;-75
2023/03/13 13:26:32;;;;;;;;;2.67;2.67;;;;;20.18;100.00;99173.97;4829266;29;45382;-74
2023/03/13 13:29:14;;;;;;;;;4.33;4.00;;;;;20.17;100.00;99164.09;4823862;29;45569;-74
2023/03/13 13:32:07;;;;;;;;;8.33;6.33;;;;;20.21;100.00;99174.75;4834520;29;45383;-74
2023/03/13 13:34:51;;;;;;;;;3.67;3.67;;;;;20.13;100.00;99176.00;4847647;29;47922;-74
2023/03/13 13:37:27;;;;;;;;;6.00;2.00;;;;;20.01;100.00;99163.13;4847256;29;45485;-73
2023/03/13 13:40:14;;;;;;;;;4.00;3.00;;;;;19.88;100.00;99151.22;4848945;29;45344;-74
2023/03/13 13:42:56;;;;;;;;;7.00;7.00;;;;;19.74;100.00;99139.28;4836648;29;46375;-74
2023/03/13 13:45:36;;;;;;;;;3.25;3.25;;;;;19.63;100.00;99138.88;4821603;29;48056;-75
2023/03/13 13:48:38;;;;;;;;;5.67;5.67;;;;;19.67;100.00;99143.19;4850223;29;45724;-74
2023/03/13 13:52:07;;;;;;;;;5.00;5.00;;;;;19.80;100.00;99137.25;4842003;29;45438;-74
2023/03/13 13:54:54;;;;;;;;;3.67;3.00;;;;;19.74;100.00;99106.91;4823983;29;45488;-73
2023/03/13 13:57:57;;;;;;;;;4.00;2.25;;;;;19.70;100.00;99094.50;4834979;29;47091;-75
2023/03/13 14:00:33;;;;;;;;;2.00;2.00;;;;;19.55;100.00;99088.06;4844022;29;45475;-74
2023/03/13 14:03:18;;;;;;;;;3.00;2.67;;;;;19.40;100.00;99094.19;4850272;29;45504;-75
2023/03/13 14:05:47;;;;;;;;;4.75;3.00;;;;;19.34;100.00;99087.25;4860981;29;45590;-75
2023/03/13 14:08:29;;;;;;;;;8.67;6.67;;;;;19.32;100.00;99085.59;4831970;29;48037;-74
2023/03/13 14:11:19;;;;;;;;;4.00;4.00;;;;;19.35;100.00;99091.72;4837286;29;45471;-76
2023/03/13 14:15:04;;;;;;;;;3.33;3.33;;;;;19.31;100.00;99090.13;4859088;29;45389;-75
2023/03/13 14:17:47;;;;;;;;;4.25;4.00;;;;;19.27;100.00;99080.44;4775382;29;45423;-76
2023/03/13 14:20:57;;;;;;;;;3.00;3.00;;;;;19.12;100.00;99067.69;4791258;29;47587;-76
2023/03/13 14:23:41;;;;;;;;;4.00;3.00;;;;;18.87;100.00;99065.28;4759786;29;45895;-75
2023/03/13 14:26:45;;;;;;;;;2.50;2.50;;;;;18.81;100.00;99060.19;4758110;29;45488;-75
2023/03/13 14:29:24;;;;;;;;;2.75;1.25;;;;;18.61;100.00;99028.75;4739818;29;46372;-76
2023/03/13 14:31:58;;;;;;;;;1.00;1.00;;;;;18.70;100.00;99036.41;4757339;29;47349;-76
2023/03/13 14:34:28;;;;;;;;;5.25;5.25;;;;;18.58;100.00;99035.16;4754289;29;45570;-76
2023/03/13 14:36:57;;;;;;;;;3.25;2.50;;;;;18.55;100.00;99036.16;4762911;29;45421;-75
2023/03/13 14:39:32;;;;;;;;;5.50;3.50;;;;;18.58;100.00;99033.34;4754024;29;45578;-76
2023/03/13 14:42:04;;;;;;;;;3.75;3.75;;;;;18.56;100.00;99026.25;4752828;29;45640;-75
2023/03/13 14:44:35;;;;;;;;;6.50;6.50;;;;;18.51;100.00;99031.88;4758918;29;45825;-75
2023/03/13 14:47:11;;;;;;;;;6.50;6.50;;;;;18.50;100.00;99038.22;4760069;29;45469;-74
2023/03/13 14:50:14;;;;;;;;;2.50;2.50;;;;;18.49;100.00;99028.38;4764768;29;45420;-74
2023/03/13 14:53:10;;;;;;;;;1.00;1.00;;;;;18.41;100.00;99029.69;4743883;29;45950;-75
2023/03/13 14:55:43;;;;;;;;;8.00;8.00;;;;;18.25;100.00;99048.34;4745232;29;46320;-74
2023/03/13 14:58:17;;;;;;;;;2.25;2.25;;;;;18.30;100.00;99048.97;4771194;29;45452;-75
2023/03/13 15:00:49;;;;;;;;;2.50;2.00;;;;;18.19;100.00;99047.66;4837466;29;45904;-75
2023/03/13 15:03:20;;;;;;;;;3.50;3.50;;;;;18.14;100.00;99047.00;4842080;29;45901;-74
2023/03/13 15:05:49;;;;;;;;;8.50;8.50;;;;;18.13;100.00;99037.16;4853608;29;45554;-75
2023/03/13 15:08:23;;;;;;;;;7.33;7.33;;;;;18.14;100.00;99043.44;4848150;29;45950;-76
2023/03/13 15:11:01;;;;;;;;;2.00;2.00;;;;;18.13;100.00;99030.91;4842770;29;46177;-75
2023/03/13 15:13:36;;;;;;;;;6.00;4.25;;;;;17.99;100.00;99029.69;4847798;29;47958;-74
2023/03/13 15:16:15;;;;;;;;;6.67;5.00;;;;;17.90;100.00;99026.56;4848680;29;45544;-76
2023/03/13 15:18:41;;;;;;;;;9.67;9.67;;;;;17.84;100.00;99027.69;4842521;29;46069;-75
2023/03/13 15:21:09;;;;;;;;;6.33;4.67;;;;;17.90;100.00;98999.66;4858631;29;45491;-75
2023/03/13 15:23:38;;;;;;;;;12.00;10.00;;;;;17.79;100.00;98984.84;4856670;29;48121;-74
2023/03/13 15:26:05;;;;;;;;;3.25;3.00;;;;;17.72;100.00;98974.41;4854048;29;45517;-75
2023/03/13 15:28:37;;;;;;;;;8.67;7.67;;;;;17.72;100.00;98969.91;4852411;29;45538;-75
2023/03/13 15:31:13;;;;;;;;;7.33;6.33;;;;;17.74;100.00;98973.38;4834340;29;45478;-75
2023/03/13 15:33:40;;;;;;;;;4.67;4.33;;;;;17.70;100.00;98968.22;4865604;29;45504;-75
2023/03/13 15:36:08;;;;;;;;;7.67;7.33;;;;;17.70;100.00;98966.41;4841392;29;44837;-74
2023/03/13 15:38:38;;;;;;;;;5.33;4.67;;;;;17.64;100.00;98974.72;4842193;29;45376;-75
2023/03/13 15:41:08;;;;;;;;;5.67;4.00;;;;;17.59;100.00;98957.91;4849748;29;45582;-75